Thunderstorms From: 26-05-2018 21:24 Until: 27-05-2018 15:00 warning for: Thunderstorms Level: Yellow info button

Although rather usual in this region, locally or potentially dangerous phenomena are expected. (such as local winds, summer thunderstorms, rising streams or high waves) Be aware and pay attention to the latest weather updates, especially if you carry out activities exposed to weather or close to a stream or shoreline. 


Meteo18 Weather Cam more information Meteo18 Weather Cam


warning for Thunderstorms more information blitzortung!


Rain radar more information rain snow radar


Visit our other weather sites:

Template documentation
and downloads

And another site



Weather Underground History page Text

Daily Summary for January 17, 2016 Units:  Metric    English   Both
« Previous Day
Next Day »
Daily Weekly Monthly Yearly Custom
  High: Low: Average:
Temperature: -17.8 °C -19 °C -17.6 °C
Dew Point: -17.8 °C -19.2 °C -18 °C
Humidity: Humidity % 84 % 94 %
Wind Speed: 0 km/h 0 km/h 0 km/h
Wind Gust: 0 km/h - -
Wind:- - ENE
Pressure: 0 hPa 34591.4 hPa -
Precipitation: 0 mm    
Historical Graphs
 
 
Tabular Data for January 17, 2016
Time Temperature Dew Point Pressure Wind Wind Speed Wind Gust Humidity Rainfall Rate (Hourly)
-17.8 °C -17.8 °C 0 hPa Calm     Humidity % 0 mm
00:02 -17.8 °C -18.2 °C 34818.2 hPa Calm     95 % 0 mm
00:12 -17.9 °C -18.3 °C 34818.2 hPa Calm     95 % 0 mm
00:17 -17.9 °C -18.3 °C 34818.2 hPa Calm     95 % 0 mm
00:22 -17.9 °C -18.3 °C 34818.2 hPa Calm     96 % 0 mm
00:27 -18 °C -18.3 °C 34818.2 hPa Calm     96 % 0 mm
00:32 -18 °C -18.3 °C 34808.1 hPa Calm     96 % 0 mm
00:37 -18.1 °C -18.4 °C 34818.2 hPa Calm     96 % 0 mm
00:42 -18.2 °C -18.6 °C 34808.1 hPa Calm     95 % 0 mm
00:47 -18.2 °C -18.6 °C 34818.2 hPa Calm     95 % 0 mm
00:52 -18.3 °C -18.6 °C 34808.1 hPa Calm     96 % 0 mm
01:02 -18.2 °C -18.6 °C 34818.2 hPa Calm     96 % 0 mm
01:07 -18.2 °C -18.6 °C 34818.2 hPa Calm     96 % 0 mm
01:17 -18.2 °C -18.6 °C 34818.2 hPa Calm     96 % 0 mm
01:22 -18.2 °C -18.6 °C 34808.1 hPa Calm     96 % 0 mm
01:32 -18.2 °C -18.5 °C 34808.1 hPa Calm     96 % 0 mm
01:37 -18.2 °C -18.5 °C 34808.1 hPa Calm     96 % 0 mm
01:42 -18.2 °C -18.5 °C 34818.2 hPa Calm     96 % 0 mm
01:52 -18.2 °C -18.5 °C 34808.1 hPa Calm     96 % 0 mm
01:57 -18.1 °C -18.3 °C 34808.1 hPa Calm     97 % 0 mm
02:02 -18.1 °C -18.4 °C 34808.1 hPa Calm     96 % 0 mm
02:12 -18.2 °C -18.5 °C 34797.9 hPa Calm     96 % 0 mm
02:17 -18.2 °C -18.6 °C 34797.9 hPa Calm     96 % 0 mm
02:22 -18.2 °C -18.4 °C 34797.9 hPa Calm     97 % 0 mm
02:32 -18.2 °C -18.4 °C 34797.9 hPa Calm     97 % 0 mm
02:37 -18.3 °C -18.6 °C 34797.9 hPa Calm     96 % 0 mm
02:42 -18.3 °C -18.7 °C 34797.9 hPa Calm     96 % 0 mm
02:52 -18.4 °C -18.7 °C 34797.9 hPa Calm     96 % 0 mm
02:57 -18.4 °C -18.7 °C 34797.9 hPa Calm     96 % 0 mm
03:02 -18.4 °C -18.7 °C 34797.9 hPa Calm     96 % 0 mm
03:07 -18.3 °C -18.5 °C 34797.9 hPa Calm     97 % 0 mm
03:17 -18.2 °C -18.4 °C 34797.9 hPa Calm     97 % 0 mm
03:22 -18.2 °C -18.4 °C 34797.9 hPa Calm     97 % 0 mm
03:27 -18.2 °C -18.4 °C 34797.9 hPa Calm     97 % 0 mm
03:32 -18.2 °C -18.4 °C 34797.9 hPa Calm     97 % 0 mm
03:42 -18.2 °C -18.4 °C 34784.4 hPa Calm     97 % 0 mm
03:47 -18.2 °C -18.4 °C 34784.4 hPa Calm     97 % 0 mm
03:52 -18.2 °C -18.4 °C 34784.4 hPa Calm     97 % 0 mm
03:57 -18.2 °C -18.4 °C 34784.4 hPa Calm     97 % 0 mm
04:02 -18.2 °C -18.4 °C 34784.4 hPa Calm     97 % 0 mm
04:07 -18.2 °C -18.4 °C 34784.4 hPa Calm     97 % 0 mm
04:12 -18.2 °C -18.4 °C 34784.4 hPa Calm     97 % 0 mm
04:22 -18.2 °C -18.4 °C 34774.2 hPa Calm     97 % 0 mm
04:37 -18.2 °C -18.4 °C 34774.2 hPa Calm     97 % 0 mm
04:42 -18.3 °C -18.5 °C 34774.2 hPa Calm     97 % 0 mm
04:47 -18.3 °C -18.5 °C 34774.2 hPa Calm     97 % 0 mm
04:52 -18.3 °C -18.5 °C 34774.2 hPa Calm     97 % 0 mm
05:02 -18.3 °C -18.5 °C 34774.2 hPa Calm     97 % 0 mm
05:07 -18.3 °C -18.5 °C 34774.2 hPa Calm     97 % 0 mm
05:12 -18.3 °C -18.5 °C 34774.2 hPa Calm     97 % 0 mm
05:17 -18.3 °C -18.6 °C 34774.2 hPa Calm     97 % 0 mm
05:22 -18.4 °C -18.6 °C 34774.2 hPa Calm     97 % 0 mm
05:27 -18.4 °C -18.6 °C 34774.2 hPa Calm     97 % 0 mm
05:32 -18.4 °C -18.6 °C 34774.2 hPa Calm     97 % 0 mm
05:37 -18.4 °C -18.6 °C 34760.7 hPa Calm     97 % 0 mm
05:42 -18.4 °C -18.7 °C 34760.7 hPa Calm     97 % 0 mm
05:47 -18.4 °C -18.7 °C 34760.7 hPa Calm     97 % 0 mm
05:52 -18.4 °C -18.7 °C 34760.7 hPa Calm     97 % 0 mm
05:57 -18.4 °C -18.7 °C 34760.7 hPa Calm     97 % 0 mm
06:02 -18.5 °C -18.7 °C 34760.7 hPa Calm     97 % 0 mm
06:07 -18.5 °C -18.7 °C 34760.7 hPa Calm     97 % 0 mm
06:12 -18.5 °C -18.7 °C 34760.7 hPa Calm     97 % 0 mm
06:17 -18.5 °C -18.7 °C 34760.7 hPa Calm     97 % 0 mm
06:22 -18.5 °C -18.7 °C 34760.7 hPa Calm     97 % 0 mm
06:27 -18.6 °C -18.8 °C 34760.7 hPa Calm     97 % 0 mm
06:32 -18.6 °C -18.8 °C 34760.7 hPa Calm     97 % 0 mm
06:37 -18.6 °C -18.8 °C 34760.7 hPa Calm     97 % 0 mm
06:42 -18.6 °C -18.8 °C 34760.7 hPa Calm     97 % 0 mm
06:47 -18.7 °C -18.9 °C 34760.7 hPa Calm     97 % 0 mm
06:52 -18.7 °C -18.9 °C 34760.7 hPa Calm     97 % 0 mm
06:57 -18.7 °C -18.9 °C 34760.7 hPa Calm     97 % 0 mm
07:02 -18.7 °C -18.9 °C 34750.5 hPa Calm     97 % 0 mm
07:07 -18.6 °C -18.8 °C 34750.5 hPa Calm     97 % 0 mm
07:12 -18.7 °C -18.9 °C 34750.5 hPa Calm     97 % 0 mm
07:17 -18.7 °C -18.9 °C 34760.7 hPa Calm     97 % 0 mm
07:22 -18.7 °C -18.9 °C 34760.7 hPa Calm     97 % 0 mm
07:27 -18.7 °C -18.9 °C 34760.7 hPa Calm     97 % 0 mm
07:42 -18.5 °C -18.7 °C 34760.7 hPa Calm     97 % 0 mm
07:47 -18.5 °C -18.7 °C 34760.7 hPa Calm     97 % 0 mm
07:57 -18.5 °C -18.7 °C 34750.5 hPa Calm     97 % 0 mm
08:02 -18.5 °C -18.7 °C 34760.7 hPa Calm     97 % 0 mm
08:12 -18.5 °C -18.7 °C 34750.5 hPa Calm     97 % 0 mm
08:17 -18.5 °C -18.7 °C 34750.5 hPa Calm     97 % 0 mm
08:37 -18.6 °C -18.8 °C 34750.5 hPa Calm     97 % 0 mm
08:42 -18.6 °C -18.8 °C 34750.5 hPa Calm     97 % 0 mm
08:47 -18.6 °C -18.8 °C 34760.7 hPa Calm     97 % 0 mm
08:52 -18.6 °C -18.8 °C 34760.7 hPa Calm     97 % 0 mm
09:07 -18.6 °C -18.8 °C 34760.7 hPa Calm   2.6 km/h 97 % 0 mm
09:12 -18.6 °C -18.8 °C 34760.7 hPa Calm   2.6 km/h 97 % 0 mm
09:17 -18.5 °C -18.7 °C 34760.7 hPa Calm   2.6 km/h 97 % 0 mm
09:22 -18.5 °C -18.7 °C 34760.7 hPa Calm     97 % 0 mm
09:37 -18.4 °C -18.6 °C 34760.7 hPa Calm     97 % 0 mm
09:42 -18.4 °C -18.6 °C 34760.7 hPa Calm     97 % 0 mm
09:47 -18.3 °C -18.6 °C 34760.7 hPa Calm     97 % 0 mm
09:52 -18.3 °C -18.5 °C 34760.7 hPa Calm     97 % 0 mm
09:57 -18.3 °C -18.5 °C 34760.7 hPa Calm     97 % 0 mm
10:02 -18.2 °C -18.4 °C 34774.2 hPa Calm     97 % 0 mm
10:07 -18.1 °C -18.3 °C 34760.7 hPa Calm     98 % 0 mm
10:12 -18 °C -18.2 °C 34760.7 hPa Calm     98 % 0 mm
10:22 -17.8 °C -18 °C 34760.7 hPa Calm     98 % 0 mm
10:27 -17.8 °C -18 °C 34760.7 hPa Calm     98 % 0 mm
10:32 -17.7 °C -17.8 °C 34760.7 hPa Calm     98 % 0 mm
10:42 -17.6 °C -17.8 °C 34760.7 hPa Calm     98 % 0 mm
10:47 -17.6 °C -17.8 °C 34760.7 hPa Calm     98 % 0 mm
10:52 -17.5 °C -17.7 °C 34760.7 hPa Calm     98 % 0 mm
10:57 -17.4 °C -17.6 °C 34760.7 hPa Calm     97 % 0 mm
11:02 -17.4 °C -17.6 °C 34760.7 hPa Calm   2.6 km/h 97 % 0 mm
11:12 -17.1 °C -17.3 °C 34774.2 hPa Calm   2.6 km/h 98 % 0 mm
11:17 -17.1 °C -17.3 °C 34774.2 hPa Calm     97 % 0 mm
11:22 -17.1 °C -17.3 °C 34774.2 hPa Calm     97 % 0 mm
11:32 -17 °C -17.3 °C 34774.2 hPa Calm   2.6 km/h 96 % 0 mm
11:37 -17 °C -17.3 °C 34774.2 hPa Calm   2.6 km/h 96 % 0 mm
11:42 -16.9 °C -17.2 °C 34774.2 hPa Calm   2.6 km/h 96 % 0 mm
11:52 -16.7 °C -17.1 °C 34774.2 hPa Calm   2.6 km/h 95 % 0 mm
11:57 -16.7 °C -17.1 °C 34774.2 hPa Calm   7.7 km/h 95 % 0 mm
12:02 -16.7 °C -17.1 °C 34774.2 hPa Calm   7.7 km/h 95 % 0 mm
12:07 -16.7 °C -17.2 °C 34774.2 hPa Calm   7.7 km/h 94 % 0 mm
12:12 -16.7 °C -17.2 °C 34774.2 hPa Calm   2.6 km/h 94 % 0 mm
12:17 -16.6 °C -17.1 °C 34774.2 hPa Calm   2.6 km/h 94 % 0 mm
12:22 -16.6 °C -17.1 °C 34774.2 hPa Calm   2.6 km/h 94 % 0 mm
12:32 -16.3 °C -16.8 °C 34760.7 hPa Calm   2.6 km/h 94 % 0 mm
12:37 -16.3 °C -16.8 °C 34760.7 hPa Calm   2.6 km/h 93 % 0 mm
12:42 -16.2 °C -16.7 °C 34760.7 hPa Calm   2.6 km/h 93 % 0 mm
12:52 -16.2 °C -16.8 °C 34760.7 hPa Calm   5.1 km/h 92 % 0 mm
12:57 -16.1 °C -16.8 °C 34760.7 hPa Calm   5.1 km/h 92 % 0 mm
13:02 -16.1 °C -16.7 °C 34760.7 hPa Calm   5.1 km/h 92 % 0 mm
13:07 -16 °C -16.7 °C 34750.5 hPa Calm   2.6 km/h 92 % 0 mm
13:12 -15.8 °C -16.6 °C 34750.5 hPa Calm   2.6 km/h 91 % 0 mm
13:17 -15.7 °C -16.4 °C 34750.5 hPa Calm     91 % 0 mm
13:22 -15.7 °C -16.5 °C 34740.4 hPa Calm   2.6 km/h 90 % 0 mm
13:27 -15.6 °C -16.4 °C 34740.4 hPa Calm   2.6 km/h 89 % 0 mm
13:32 -15.5 °C -16.4 °C 34740.4 hPa Calm   2.6 km/h 89 % 0 mm
13:37 -15.5 °C -16.5 °C 34740.4 hPa Calm   2.6 km/h 88 % 0 mm
13:42 -15.4 °C -16.4 °C 34740.4 hPa Calm   2.6 km/h 88 % 0 mm
13:47 -15.4 °C -16.4 °C 34740.4 hPa Calm   2.6 km/h 89 % 0 mm
13:52 -15.4 °C -16.4 °C 34740.4 hPa Calm   2.6 km/h 89 % 0 mm
13:57 -15.4 °C -16.4 °C 34726.8 hPa Calm   2.6 km/h 88 % 0 mm
14:07 -15.4 °C -16.6 °C 34726.8 hPa Calm   2.6 km/h 87 % 0 mm
14:12 -15.4 °C -16.6 °C 34726.8 hPa Calm   2.6 km/h 86 % 0 mm
14:17 -15.4 °C -16.6 °C 34726.8 hPa Calm   2.6 km/h 86 % 0 mm
14:22 -15.4 °C -16.6 °C 34726.8 hPa Calm     86 % 0 mm
14:32 -15.4 °C -16.7 °C 34726.8 hPa Calm   5.1 km/h 85 % 0 mm
14:42 -15.4 °C -16.8 °C 34716.7 hPa NE 2.6 km/h 5.1 km/h 84 % 0 mm
14:47 -15.4 °C -16.8 °C 34716.7 hPa NE 2.6 km/h 7.7 km/h 84 % 0 mm
14:52 -15.5 °C -16.8 °C 34716.7 hPa Calm   7.7 km/h 85 % 0 mm
14:57 -15.6 °C -16.9 °C 34716.7 hPa Calm   7.7 km/h 84 % 0 mm
15:02 -15.6 °C -16.8 °C 34716.7 hPa Calm   7.7 km/h 85 % 0 mm
15:07 -15.5 °C -16.8 °C 34716.7 hPa Calm   7.7 km/h 85 % 0 mm
15:12 -15.4 °C -16.6 °C 34716.7 hPa NE 5.1 km/h 7.7 km/h 86 % 0 mm
15:17 -15.4 °C -16.7 °C 34703.1 hPa Calm   7.7 km/h 85 % 0 mm
15:22 -15.4 °C -16.7 °C 34703.1 hPa ENE 2.6 km/h 7.7 km/h 85 % 0 mm
15:27 -15.4 °C -16.5 °C 34703.1 hPa Calm   7.7 km/h 87 % 0 mm
15:32 -15.4 °C -16.4 °C 34703.1 hPa Calm   7.7 km/h 88 % 0 mm
15:37 -15.4 °C -16.4 °C 34703.1 hPa Calm   7.7 km/h 88 % 0 mm
15:42 -15.5 °C -16.5 °C 34703.1 hPa Calm   7.7 km/h 88 % 0 mm
15:47 -15.6 °C -16.6 °C 34703.1 hPa Calm   7.7 km/h 88 % 0 mm
15:52 -15.7 °C -16.7 °C 34703.1 hPa Calm   2.6 km/h 88 % 0 mm
15:57 -15.7 °C -16.7 °C 34703.1 hPa Calm   2.6 km/h 88 % 0 mm
16:02 -15.7 °C -16.7 °C 34703.1 hPa Calm   2.6 km/h 88 % 0 mm
16:07 -15.7 °C -16.6 °C 34703.1 hPa ESE 2.6 km/h 2.6 km/h 89 % 0 mm
16:12 -15.7 °C -16.6 °C 34703.1 hPa Calm   2.6 km/h 89 % 0 mm
16:17 -15.8 °C -16.7 °C 34703.1 hPa Calm   2.6 km/h 89 % 0 mm
16:22 -15.8 °C -16.7 °C 34703.1 hPa Calm   2.6 km/h 89 % 0 mm
16:37 -16.1 °C -16.8 °C 34703.1 hPa Calm   2.6 km/h 91 % 0 mm
16:42 -16.1 °C -16.8 °C 34703.1 hPa Calm   2.6 km/h 92 % 0 mm
16:52 -16.2 °C -16.9 °C 34703.1 hPa Calm   5.1 km/h 92 % 0 mm
16:57 -16.3 °C -16.9 °C 34693 hPa Calm   5.1 km/h 92 % 0 mm
17:02 -16.3 °C -16.8 °C 34693 hPa Calm   2.6 km/h 93 % 0 mm
17:12 -16.3 °C -16.9 °C 34693 hPa Calm   2.6 km/h 93 % 0 mm
17:17 -16.4 °C -16.9 °C 34693 hPa Calm     93 % 0 mm
17:22 -16.4 °C -17 °C 34693 hPa Calm     93 % 0 mm
17:27 -16.5 °C -17.1 °C 34693 hPa Calm     93 % 0 mm
17:32 -16.5 °C -17.1 °C 34693 hPa Calm     93 % 0 mm
17:37 -16.6 °C -17.1 °C 34693 hPa Calm     93 % 0 mm
17:42 -16.6 °C -17.1 °C 34693 hPa Calm     93 % 0 mm
17:47 -16.6 °C -17.2 °C 34682.8 hPa Calm     93 % 0 mm
17:52 -16.7 °C -17.2 °C 34693 hPa Calm     93 % 0 mm
18:02 -16.8 °C -17.3 °C 34682.8 hPa Calm     93 % 0 mm
18:12 -16.8 °C -17.3 °C 34682.8 hPa Calm     94 % 0 mm
18:17 -16.8 °C -17.3 °C 34682.8 hPa Calm     94 % 0 mm
18:22 -16.8 °C -17.3 °C 34682.8 hPa Calm     94 % 0 mm
18:27 -16.8 °C -17.3 °C 34682.8 hPa Calm   2.6 km/h 94 % 0 mm
18:32 -16.8 °C -17.3 °C 34682.8 hPa Calm   2.6 km/h 94 % 0 mm
18:37 -16.8 °C -17.3 °C 34682.8 hPa Calm   2.6 km/h 94 % 0 mm
18:42 -16.9 °C -17.4 °C 34682.8 hPa Calm   2.6 km/h 94 % 0 mm
18:47 -16.9 °C -17.4 °C 34682.8 hPa Calm   2.6 km/h 94 % 0 mm
18:52 -16.9 °C -17.4 °C 34669.3 hPa Calm   2.6 km/h 94 % 0 mm
19:02 -16.9 °C -17.4 °C 34669.3 hPa Calm     94 % 0 mm
19:07 -16.9 °C -17.4 °C 34669.3 hPa Calm     94 % 0 mm
19:17 -17 °C -17.5 °C 34669.3 hPa Calm     94 % 0 mm
19:22 -17 °C -17.4 °C 34669.3 hPa Calm     95 % 0 mm
19:32 -17.1 °C -17.6 °C 34669.3 hPa Calm   2.6 km/h 94 % 0 mm
19:37 -17.1 °C -17.6 °C 34669.3 hPa Calm   2.6 km/h 94 % 0 mm
19:42 -17.2 °C -17.7 °C 34669.3 hPa Calm   2.6 km/h 94 % 0 mm
19:47 -17.3 °C -17.8 °C 34659.1 hPa Calm   2.6 km/h 94 % 0 mm
19:52 -17.4 °C -17.9 °C 34669.3 hPa Calm   2.6 km/h 94 % 0 mm
20:02 -17.7 °C -18.2 °C 34659.1 hPa Calm     94 % 0 mm
20:12 -17.8 °C -18.2 °C 34659.1 hPa Calm     95 % 0 mm
20:22 -17.9 °C -18.3 °C 34659.1 hPa Calm     95 % 0 mm
20:32 -18.1 °C -18.5 °C 34659.1 hPa Calm     95 % 0 mm
20:42 -18.2 °C -18.6 °C 34645.6 hPa Calm     96 % 0 mm
20:47 -18.2 °C -18.6 °C 34645.6 hPa Calm     96 % 0 mm
20:52 -18.3 °C -18.6 °C 34645.6 hPa Calm     96 % 0 mm
21:02 -18.4 °C -18.8 °C 34645.6 hPa Calm     96 % 0 mm
21:07 -18.5 °C -18.8 °C 34645.6 hPa Calm     96 % 0 mm
21:12 -18.5 °C -18.8 °C 34645.6 hPa Calm     96 % 0 mm
21:22 -18.5 °C -18.8 °C 34645.6 hPa Calm     96 % 0 mm
21:27 -18.6 °C -18.9 °C 34645.6 hPa Calm     96 % 0 mm
21:32 -18.6 °C -18.9 °C 34635.4 hPa Calm     96 % 0 mm
21:37 -18.6 °C -18.8 °C 34635.4 hPa Calm     97 % 0 mm
21:42 -18.6 °C -18.8 °C 34635.4 hPa Calm     97 % 0 mm
21:47 -18.6 °C -18.8 °C 34635.4 hPa Calm     97 % 0 mm
21:52 -18.6 °C -18.8 °C 34635.4 hPa Calm     97 % 0 mm
22:07 -18.6 °C -18.8 °C 34635.4 hPa Calm     97 % 0 mm
22:12 -18.7 °C -18.9 °C 34635.4 hPa Calm     97 % 0 mm
22:17 -18.7 °C -18.9 °C 34625.2 hPa Calm     97 % 0 mm
22:22 -18.7 °C -18.9 °C 34625.2 hPa Calm     97 % 0 mm
22:27 -18.7 °C -18.9 °C 34625.2 hPa Calm     97 % 0 mm
22:32 -18.7 °C -18.9 °C 34625.2 hPa Calm     97 % 0 mm
22:37 -18.7 °C -18.9 °C 34625.2 hPa Calm     97 % 0 mm
22:42 -18.7 °C -18.9 °C 34625.2 hPa Calm   2.6 km/h 97 % 0 mm
22:47 -18.8 °C -19 °C 34625.2 hPa Calm   2.6 km/h 97 % 0 mm
22:52 -18.8 °C -19 °C 34611.7 hPa Calm   2.6 km/h 97 % 0 mm
22:57 -18.8 °C -19 °C 34611.7 hPa Calm     97 % 0 mm
23:02 -18.8 °C -19.1 °C 34611.7 hPa Calm     97 % 0 mm
23:07 -18.8 °C -19.1 °C 34611.7 hPa Calm     97 % 0 mm
23:12 -18.8 °C -19.1 °C 34611.7 hPa Calm     97 % 0 mm
23:17 -18.8 °C -19.1 °C 34601.5 hPa Calm     97 % 0 mm
23:22 -18.8 °C -19.1 °C 34601.5 hPa Calm     97 % 0 mm
23:27 -18.8 °C -19.1 °C 34601.5 hPa Calm     97 % 0 mm
23:32 -18.9 °C -19.1 °C 34601.5 hPa Calm     97 % 0 mm
23:37 -18.8 °C -19 °C 34601.5 hPa Calm     97 % 0 mm
23:42 -18.8 °C -19.1 °C 34591.4 hPa Calm     97 % 0 mm
23:52 -18.9 °C -19.1 °C 34591.4 hPa Calm     97 % 0 mm
23:57 -19 °C -19.2 °C 34591.4 hPa Calm     97 % 0 mm
Meteo18
Compliments of Weather Underground - 4 mb

Script developed by  Jim McMurry - jmcmurry@mwt.net Adapted for the template by  Wim van der Kuil - Leuven-Template.eu

You find our weather info also at:

European Weather Network

Weather Underground

Equipment we use:

Weather-station
Davis Vue

Weather-program
Meteobridge

Weather-server
Raspberry PI 2 B+

Provider
1 and 1

Davis Vue

Meteobridge

Raspberry PI 2 B+

1 and 1